Sea Venture — WDF5080 — position and weather

sailwx.info

Track history (hours):
 
Tides and Currents Weather Stations Pressure Air Temp Water Temp Dewpoint Dewpoint Depression Visibility Wind Speed Wind Dir Waves Ship Positions

Sea Venture

Owner: Great Western Marine Yachts LLC, Seattle, WA. More information available from US FCC via Universal Licensing System and Coast Guard Vessel Documentation Center.

Last reported at 2015-Aug-27 16:29 UTC. Time now 2015-Aug-31 08:53 UTC.
Position N 26°05' W 080°11'.

Length 33 m.

MMSI: 338103225.

Date/timePositionNaut miles runAvg speedWind from/ knotsBaromVisibWave heightAir tempDewpointWater temp
2015-Aug-27 16:29N 26°05' W 080°11'1 0.6
2015-Aug-27 15:33N 26°05' W 080°11'3 3.0
2015-Aug-27 14:33N 26°07' W 080°08'1 0.1
2015-Aug-26 19:33N 26°08' W 080°07'2 2.4
2015-Aug-26 18:34N 26°06' W 080°07'1010.1
2015-Aug-26 17:33N 26°16' W 080°05'4 4.3
2015-Aug-26 16:33N 26°11' W 080°06'4 3.8
2015-Aug-26 15:34N 26°08' W 080°07'1 0.6
2015-Aug-26 14:33N 26°08' W 080°07'0 0.0
2015-Aug-26 13:33N 26°08' W 080°07'0 0.0
2015-Aug-26 12:34N 26°08' W 080°07'0 0.0
2015-Aug-26 11:33N 26°08' W 080°07'0 0.0
2015-Aug-26 01:04N 26°08' W 080°07'0 0.0
2015-Aug-26 00:33N 26°08' W 080°07'0 0.0
2015-Aug-25 23:33N 26°08' W 080°07'0 0.0
2015-Aug-25 22:33N 26°08' W 080°07'0 0.0
2015-Aug-25 21:33N 26°08' W 080°07'  
2015-Aug-20 15:05N 26°08' W 080°07'  
Track history (hours):
 
Tides and Currents Weather Stations Pressure Air Temp Water Temp Dewpoint Dewpoint Depression Visibility Wind Speed Wind Dir Waves Ship Positions

Sea Venture

Owner: Great Western Marine Yachts LLC, Seattle, WA. More information available from US FCC via Universal Licensing System and Coast Guard Vessel Documentation Center.

Last reported at 2015-Aug-27 16:29 UTC. Time now 2015-Aug-31 08:53 UTC.
Position N 26°05' W 080°11'.

Length 33 m.

MMSI: 338103225.

Date/timePositionNaut miles runAvg speedWind from/ knotsBaromVisibWave heightAir tempDewpointWater temp
2015-Aug-27 16:29N 26°05' W 080°11'1 0.6
2015-Aug-27 15:33N 26°05' W 080°11'3 3.0
2015-Aug-27 14:33N 26°07' W 080°08'1 0.1
2015-Aug-26 19:33N 26°08' W 080°07'2 2.4
2015-Aug-26 18:34N 26°06' W 080°07'1010.1
2015-Aug-26 17:33N 26°16' W 080°05'4 4.3
2015-Aug-26 16:33N 26°11' W 080°06'4 3.8
2015-Aug-26 15:34N 26°08' W 080°07'1 0.6
2015-Aug-26 14:33N 26°08' W 080°07'0 0.0
2015-Aug-26 13:33N 26°08' W 080°07'0 0.0
2015-Aug-26 12:34N 26°08' W 080°07'0 0.0
2015-Aug-26 11:33N 26°08' W 080°07'0 0.0
2015-Aug-26 01:04N 26°08' W 080°07'0 0.0
2015-Aug-26 00:33N 26°08' W 080°07'0 0.0
2015-Aug-25 23:33N 26°08' W 080°07'0 0.0
2015-Aug-25 22:33N 26°08' W 080°07'0 0.0
2015-Aug-25 21:33N 26°08' W 080°07'  
2015-Aug-20 15:05N 26°08' W 080°07'  

Dump ship's entire track history